Time;durP1;ratioP1;P1;durP2;ratioP2;P2;SDS_P1;SDS_P2;PMS_P1;PMS_P2;Temp;Humidity;BMP_temperature;BMP_pressure;BME280_temperature;BME280_humidity;BME280_pressure;Samples;Min_cycle;Max_cycle;Signal;HPM_P1;HPM_P2
2021/06/11 00:01:05;;;;;;;;;;;20.60;65.50;;;;;;5031715;28;1361;-72
2021/06/11 00:03:30;;;;;;;;;;;20.60;65.50;;;;;;5030100;28;1478;-73
2021/06/11 00:05:56;;;;;;;;;;;20.60;65.50;;;;;;5047350;28;989;-73
2021/06/11 00:08:21;;;;;;;;;;;20.60;65.50;;;;;;5064341;28;1460;-73
2021/06/11 00:10:47;;;;;;;;;;;20.60;65.50;;;;;;5032287;28;1422;-73
2021/06/11 00:13:12;;;;;;;;;;;20.60;65.50;;;;;;5062790;28;1480;-73
2021/06/11 00:15:38;;;;;;;;;;;20.60;65.50;;;;;;5032124;28;1890;-74
2021/06/11 00:18:03;;;;;;;;;;;20.60;65.50;;;;;;5030766;28;1244;-73
2021/06/11 00:20:29;;;;;;;;;;;20.60;65.50;;;;;;5032103;28;1466;-73
2021/06/11 00:22:54;;;;;;;;;;;20.60;65.50;;;;;;5031226;28;1411;-73
2021/06/11 00:25:21;;;;;;;;;;;20.60;65.50;;;;;;5023305;28;1401;-74
2021/06/11 00:27:47;;;;;;;;;;;20.60;65.50;;;;;;5029557;28;1254;-75
2021/06/11 00:30:13;;;;;;;;;;;20.60;65.50;;;;;;5012953;28;1372;-73
2021/06/11 00:32:38;;;;;;;;;;;20.60;65.50;;;;;;5031971;28;1358;-72
2021/06/11 00:35:05;;;;;;;;;;;20.60;65.50;;;;;;5029900;28;1910;-74
2021/06/11 00:37:30;;;;;;;;;;;20.60;65.50;;;;;;5032361;28;1143;-74
2021/06/11 00:39:55;;;;;;;;;;;20.60;65.50;;;;;;5059658;28;1153;-75
2021/06/11 00:42:21;;;;;;;;;;;20.60;65.50;;;;;;5030019;28;1304;-73
2021/06/11 00:44:46;;;;;;;;;;;20.60;65.50;;;;;;5029248;28;1332;-74
2021/06/11 00:47:12;;;;;;;;;;;20.60;65.50;;;;;;5027620;28;1245;-72
2021/06/11 00:49:37;;;;;;;;;;;20.60;65.50;;;;;;5026097;28;1417;-75
2021/06/11 00:52:05;;;;;;;;;;;20.60;65.50;;;;;;5009339;28;1371;-75
2021/06/11 00:54:31;;;;;;;;;;;20.60;65.50;;;;;;5027524;28;1891;-74
2021/06/11 00:56:56;;;;;;;;;;;20.60;65.50;;;;;;5029048;28;1154;-74
2021/06/11 00:59:21;;;;;;;;;;;20.60;65.50;;;;;;5029086;28;1240;-76
2021/06/11 01:01:47;;;;;;;;;;;20.60;65.50;;;;;;5028381;28;1178;-76
2021/06/11 01:04:12;;;;;;;;;;;20.60;65.50;;;;;;5054979;28;1319;-75
2021/06/11 01:06:39;;;;;;;;;;;20.60;65.50;;;;;;5028898;28;1364;-73
2021/06/11 01:09:05;;;;;;;;;;;20.60;65.50;;;;;;5032861;28;1351;-74
2021/06/11 01:11:30;;;;;;;;;;;20.60;65.50;;;;;;5031014;28;1166;-73
2021/06/11 01:13:56;;;;;;;;;;;20.60;65.50;;;;;;5031927;28;1914;-73
2021/06/11 01:16:21;;;;;;;;;;;20.60;65.50;;;;;;5013745;28;1348;-72
2021/06/11 01:18:46;;;;;;;;;;;20.60;65.50;;;;;;5034164;28;1207;-73
2021/06/11 01:21:12;;;;;;;;;;;20.60;65.50;;;;;;5029505;28;1108;-74
2021/06/11 01:23:43;;;;;;;;;;;20.60;65.60;;;;;;5066643;28;1315;-75
2021/06/11 01:26:12;;;;;;;;;;;20.60;65.60;;;;;;5027659;28;1201;-75
2021/06/11 01:28:38;;;;;;;;;;;20.60;65.60;;;;;;5050572;28;1414;-74
2021/06/11 01:31:04;;;;;;;;;;;20.60;65.60;;;;;;5053896;28;1084;-74
2021/06/11 01:33:29;;;;;;;;;;;20.60;65.60;;;;;;5066644;28;1948;-74
2021/06/11 01:36:02;;;;;;;;;;;20.60;65.60;;;;;;5067048;28;1305;-74
2021/06/11 01:38:31;;;;;;;;;;;20.60;65.60;;;;;;5067191;28;1056;-75
2021/06/11 01:40:56;;;;;;;;;;;20.60;65.60;;;;;;5050151;28;1172;-76
2021/06/11 01:43:22;;;;;;;;;;;20.60;65.60;;;;;;5066220;28;1255;-75
2021/06/11 01:45:47;;;;;;;;;;;20.60;65.60;;;;;;5067343;28;1182;-76
2021/06/11 01:48:13;;;;;;;;;;;20.60;65.60;;;;;;5034477;28;938;-75
2021/06/11 01:50:38;;;;;;;;;;;20.60;65.60;;;;;;5050700;28;1283;-75
2021/06/11 01:53:04;;;;;;;;;;;20.60;66.30;;;;;;5049397;28;1135;-75
2021/06/11 01:55:30;;;;;;;;;;;20.60;65.60;;;;;;5050024;28;1951;-75
2021/06/11 01:57:55;;;;;;;;;;;20.60;65.60;;;;;;5049594;28;1188;-74
2021/06/11 02:00:21;;;;;;;;;;;20.60;65.60;;;;;;5066872;28;1139;-74
2021/06/11 02:02:46;;;;;;;;;;;20.60;65.60;;;;;;5034543;28;1060;-75
2021/06/11 02:05:12;;;;;;;;;;;20.60;65.60;;;;;;5066188;28;1283;-74
2021/06/11 02:07:37;;;;;;;;;;;20.60;65.60;;;;;;5066745;28;1103;-74
2021/06/11 02:10:03;;;;;;;;;;;20.60;65.60;;;;;;5066915;28;1079;-73
2021/06/11 02:12:29;;;;;;;;;;;20.60;65.60;;;;;;5066420;28;1158;-72
2021/06/11 02:14:54;;;;;;;;;;;20.60;65.60;;;;;;5058525;28;1969;-72
2021/06/11 02:17:20;;;;;;;;;;;20.60;65.60;;;;;;5028677;28;973;-72
2021/06/11 02:19:45;;;;;;;;;;;20.60;65.60;;;;;;5065349;28;1094;-72
2021/06/11 02:22:11;;;;;;;;;;;20.60;65.60;;;;;;5060297;28;1185;-73
2021/06/11 02:24:39;;;;;;;;;;;20.60;65.60;;;;;;5064477;28;1299;-73
2021/06/11 02:27:05;;;;;;;;;;;20.60;65.60;;;;;;5027682;28;1067;-72
2021/06/11 02:29:30;;;;;;;;;;;20.60;65.60;;;;;;5066014;28;1077;-72
2021/06/11 02:31:56;;;;;;;;;;;20.60;65.60;;;;;;5066549;28;1099;-72
2021/06/11 02:34:21;;;;;;;;;;;20.60;65.60;;;;;;5032920;28;1898;-73
2021/06/11 02:36:47;;;;;;;;;;;20.60;65.60;;;;;;5049199;28;1219;-73
2021/06/11 02:39:12;;;;;;;;;;;20.60;65.70;;;;;;5065699;28;1138;-73
2021/06/11 02:41:40;;;;;;;;;;;20.60;65.70;;;;;;5032994;28;1231;-73
2021/06/11 02:44:07;;;;;;;;;;;20.60;65.60;;;;;;5033291;28;1304;-73
2021/06/11 02:46:34;;;;;;;;;;;20.60;65.60;;;;;;5049685;28;1188;-73
2021/06/11 02:49:02;;;;;;;;;;;20.60;65.70;;;;;;5033888;28;1134;-73
2021/06/11 02:51:36;;;;;;;;;;;20.60;65.70;;;;;;5065379;28;1091;-73
2021/06/11 02:54:02;;;;;;;;;;;20.60;65.70;;;;;;5033037;28;1973;-73
2021/06/11 02:56:29;;;;;;;;;;;20.60;65.70;;;;;;5065795;28;1076;-73
2021/06/11 02:59:04;;;;;;;;;;;20.60;65.60;;;;;;5065825;28;1069;-73
2021/06/11 03:01:32;;;;;;;;;;;20.60;65.70;;;;;;5065429;28;1134;-73
2021/06/11 03:03:57;;;;;;;;;;;20.60;65.60;;;;;;5064697;28;1394;-72
2021/06/11 03:06:23;;;;;;;;;;;20.60;65.70;;;;;;5065471;28;1087;-74
2021/06/11 03:08:49;;;;;;;;;;;20.60;65.70;;;;;;5065088;28;1067;-73
2021/06/11 03:11:18;;;;;;;;;;;20.60;65.70;;;;;;5065062;28;1111;-73
2021/06/11 03:13:44;;;;;;;;;;;20.60;65.70;;;;;;5063504;28;1887;-74
2021/06/11 03:16:10;;;;;;;;;;;20.60;65.70;;;;;;5051903;28;1275;-74
2021/06/11 03:18:51;;;;;;;;;;;20.60;65.70;;;;;;5048720;28;1376;-75
2021/06/11 03:21:19;;;;;;;;;;;20.60;65.70;;;;;;5031804;28;1143;-75
2021/06/11 03:23:50;;;;;;;;;;;20.60;65.70;;;;;;5065039;28;1231;-75
2021/06/11 03:26:18;;;;;;;;;;;20.60;65.70;;;;;;5033268;28;1079;-75
2021/06/11 03:28:50;;;;;;;;;;;20.60;65.70;;;;;;5048432;28;1431;-76
2021/06/11 03:31:20;;;;;;;;;;;20.60;65.70;;;;;;5064931;28;1107;-74
2021/06/11 03:33:46;;;;;;;;;;;20.60;65.70;;;;;;5047281;28;1981;-74
2021/06/11 03:36:12;;;;;;;;;;;20.60;65.70;;;;;;5064387;28;1071;-72
2021/06/11 03:38:38;;;;;;;;;;;20.60;65.70;;;;;;5032667;28;1052;-73
2021/06/11 03:41:03;;;;;;;;;;;20.60;65.70;;;;;;5064464;28;1067;-73
2021/06/11 03:43:29;;;;;;;;;;;20.60;65.70;;;;;;5046712;28;1272;-72
2021/06/11 03:45:55;;;;;;;;;;;20.60;65.70;;;;;;5063782;28;1084;-74
2021/06/11 03:48:20;;;;;;;;;;;20.60;65.70;;;;;;5029327;28;1193;-74
2021/06/11 03:50:47;;;;;;;;;;;20.60;65.70;;;;;;5028285;28;1144;-75
2021/06/11 03:53:12;;;;;;;;;;;20.60;65.70;;;;;;5028836;28;1320;-77
2021/06/11 03:55:41;;;;;;;;;;;20.60;65.70;;;;;;5014347;28;1887;-73
2021/06/11 03:58:27;;;;;;;;;;;20.60;65.70;;;;;;5063404;28;1480;-73
2021/06/11 04:00:52;;;;;;;;;;;20.60;65.70;;;;;;5029534;28;1229;-72
2021/06/11 04:03:18;;;;;;;;;;;20.60;65.70;;;;;;5029814;28;1288;-75
2021/06/11 04:05:43;;;;;;;;;;;20.60;65.70;;;;;;5030940;28;1228;-72
2021/06/11 04:08:09;;;;;;;;;;;20.60;65.70;;;;;;5030773;28;1275;-72
2021/06/11 04:10:35;;;;;;;;;;;20.60;65.70;;;;;;5031975;28;1231;-74
2021/06/11 04:13:13;;;;;;;;;;;20.60;65.70;;;;;;5030105;28;1239;-75
2021/06/11 04:15:39;;;;;;;;;;;20.60;65.70;;;;;;5027164;28;1965;-74
2021/06/11 04:18:06;;;;;;;;;;;20.60;65.80;;;;;;5055202;28;1192;-72
2021/06/11 04:20:32;;;;;;;;;;;20.60;65.70;;;;;;5059049;28;1115;-72
2021/06/11 04:22:59;;;;;;;;;;;20.60;65.70;;;;;;5063289;28;1118;-72
2021/06/11 04:25:26;;;;;;;;;;;20.60;65.70;;;;;;5056589;28;1238;-73
2021/06/11 04:27:52;;;;;;;;;;;20.60;65.70;;;;;;5064349;28;1138;-73
2021/06/11 04:30:18;;;;;;;;;;;20.60;65.70;;;;;;5031797;28;1271;-73
2021/06/11 04:32:43;;;;;;;;;;;20.60;65.80;;;;;;5063622;28;1195;-74
2021/06/11 04:35:09;;;;;;;;;;;20.60;65.70;;;;;;5063784;28;1902;-76
2021/06/11 04:37:36;;;;;;;;;;;20.60;65.70;;;;;;5047073;28;1316;-74
2021/06/11 04:40:03;;;;;;;;;;;20.60;65.70;;;;;;5030855;28;1323;-74
2021/06/11 04:42:28;;;;;;;;;;;20.60;65.80;;;;;;5033584;28;984;-73
2021/06/11 04:44:54;;;;;;;;;;;20.60;65.70;;;;;;5061587;28;1334;-72
2021/06/11 04:47:19;;;;;;;;;;;20.60;65.80;;;;;;5035370;28;1255;-73
2021/06/11 04:49:44;;;;;;;;;;;20.60;65.70;;;;;;5034975;28;1240;-72
2021/06/11 04:52:10;;;;;;;;;;;20.60;65.70;;;;;;5034289;28;1268;-72
2021/06/11 04:54:35;;;;;;;;;;;20.60;65.70;;;;;;5034360;28;1963;-72
2021/06/11 04:57:01;;;;;;;;;;;20.60;65.80;;;;;;5035750;28;1286;-72
2021/06/11 04:59:26;;;;;;;;;;;20.60;65.70;;;;;;5033675;28;1251;-72
2021/06/11 05:01:52;;;;;;;;;;;20.60;65.70;;;;;;5035798;28;1176;-72
2021/06/11 05:04:17;;;;;;;;;;;20.60;65.80;;;;;;5034704;28;1298;-72
2021/06/11 05:06:43;;;;;;;;;;;20.60;65.80;;;;;;5035350;28;1199;-72
2021/06/11 05:09:08;;;;;;;;;;;20.60;65.80;;;;;;5065834;28;1350;-72
2021/06/11 05:11:33;;;;;;;;;;;20.60;65.70;;;;;;5034737;28;1247;-72
2021/06/11 05:13:59;;;;;;;;;;;20.60;65.70;;;;;;5032767;28;1971;-73
2021/06/11 05:16:26;;;;;;;;;;;20.60;65.70;;;;;;5055947;28;1332;-73
2021/06/11 05:18:51;;;;;;;;;;;20.60;65.70;;;;;;5032817;28;1164;-74
2021/06/11 05:21:16;;;;;;;;;;;20.60;65.80;;;;;;5032720;28;1092;-74
2021/06/11 05:23:42;;;;;;;;;;;20.60;65.80;;;;;;5032130;28;1237;-72
2021/06/11 05:26:07;;;;;;;;;;;20.60;65.80;;;;;;5033719;28;1134;-73
2021/06/11 05:28:33;;;;;;;;;;;20.60;65.80;;;;;;5034023;28;1251;-72
2021/06/11 05:30:58;;;;;;;;;;;20.60;65.80;;;;;;5033869;28;1321;-72
2021/06/11 05:33:24;;;;;;;;;;;20.60;65.80;;;;;;5033352;28;1284;-72
2021/06/11 05:35:49;;;;;;;;;;;20.60;65.70;;;;;;5034130;28;1902;-72
2021/06/11 05:38:14;;;;;;;;;;;20.60;65.80;;;;;;5035289;28;1099;-73
2021/06/11 05:40:40;;;;;;;;;;;20.60;65.70;;;;;;5034870;28;1127;-73
2021/06/11 05:43:06;;;;;;;;;;;20.60;65.70;;;;;;5066243;28;1075;-72
2021/06/11 05:45:31;;;;;;;;;;;20.60;65.70;;;;;;5067106;28;1127;-72
2021/06/11 05:47:57;;;;;;;;;;;20.60;65.80;;;;;;5034649;28;1170;-72
2021/06/11 05:50:22;;;;;;;;;;;20.60;65.80;;;;;;5034820;28;1110;-72
2021/06/11 05:52:48;;;;;;;;;;;20.60;65.80;;;;;;5033935;28;1067;-71
2021/06/11 05:55:14;;;;;;;;;;;20.60;65.80;;;;;;5034722;28;1903;-72
2021/06/11 05:57:40;;;;;;;;;;;20.60;65.80;;;;;;5050029;28;1260;-71
2021/06/11 06:00:06;;;;;;;;;;;20.60;65.70;;;;;;5066725;28;1131;-71
2021/06/11 06:02:31;;;;;;;;;;;20.60;65.70;;;;;;5066752;28;1063;-72
2021/06/11 06:04:57;;;;;;;;;;;20.60;65.80;;;;;;5065615;28;1370;-71
2021/06/11 06:07:22;;;;;;;;;;;20.60;65.80;;;;;;5066834;28;1146;-71
2021/06/11 06:09:48;;;;;;;;;;;20.60;65.80;;;;;;5066228;28;1063;-72
2021/06/11 06:12:13;;;;;;;;;;;20.60;65.80;;;;;;5034544;28;1083;-72
2021/06/11 06:14:39;;;;;;;;;;;20.60;65.70;;;;;;5057363;28;1979;-68
2021/06/11 06:17:04;;;;;;;;;;;20.60;65.80;;;;;;5027505;28;1868;-71
2021/06/11 06:19:30;;;;;;;;;;;20.60;66.60;;;;;;5036074;28;1103;-69
2021/06/11 06:21:55;;;;;;;;;;;20.60;65.80;;;;;;5045974;28;1118;-69
2021/06/11 06:24:21;;;;;;;;;;;20.60;65.90;;;;;;5034196;28;1292;-70
2021/06/11 06:26:46;;;;;;;;;;;20.60;65.90;;;;;;5057785;28;1154;-70
2021/06/11 06:29:11;;;;;;;;;;;20.60;65.80;;;;;;5064957;28;1119;-69
2021/06/11 06:31:37;;;;;;;;;;;20.60;65.80;;;;;;5033432;28;1116;-70
2021/06/11 06:34:03;;;;;;;;;;;20.60;65.90;;;;;;5023791;28;1967;-70
2021/06/11 06:36:28;;;;;;;;;;;20.60;65.80;;;;;;5032308;28;1087;-68
2021/06/11 06:38:57;;;;;;;;;;;20.60;65.90;;;;;;5032852;28;1051;-69
2021/06/11 06:41:22;;;;;;;;;;;20.60;65.90;;;;;;5033348;28;1103;-69
2021/06/11 06:43:48;;;;;;;;;;;20.60;65.90;;;;;;5031468;28;1342;-69
2021/06/11 06:46:15;;;;;;;;;;;20.60;65.90;;;;;;5032521;28;1150;-69
2021/06/11 06:48:41;;;;;;;;;;;20.60;65.90;;;;;;5064899;28;1130;-70
2021/06/11 06:51:06;;;;;;;;;;;20.60;65.90;;;;;;5058815;28;2017;-73
2021/06/11 06:53:32;;;;;;;;;;;20.60;65.90;;;;;;5077735;28;1898;-71
2021/06/11 06:55:57;;;;;;;;;;;20.60;65.90;;;;;;5042518;28;1114;-71
2021/06/11 06:58:23;;;;;;;;;;;20.60;65.90;;;;;;5033196;28;1044;-72
2021/06/11 07:00:48;;;;;;;;;;;20.60;66.00;;;;;;5033799;28;1146;-72
2021/06/11 07:03:13;;;;;;;;;;;20.60;65.90;;;;;;5031078;28;1315;-71
2021/06/11 07:05:39;;;;;;;;;;;20.60;65.90;;;;;;5033077;28;1060;-71
2021/06/11 07:08:04;;;;;;;;;;;20.60;65.90;;;;;;5034014;28;1166;-71
2021/06/11 07:10:30;;;;;;;;;;;20.60;65.90;;;;;;5033546;28;929;-71
2021/06/11 07:12:55;;;;;;;;;;;20.60;66.00;;;;;;5032634;28;1107;-71
2021/06/11 07:15:21;;;;;;;;;;;20.60;65.90;;;;;;5033004;28;1954;-72
2021/06/11 07:17:46;;;;;;;;;;;20.60;66.00;;;;;;5050195;22;2152;-66
2021/06/11 07:20:12;;;;;;;;;;;20.60;66.00;;;;;;5043821;28;1996;-66
2021/06/11 07:22:37;;;;;;;;;;;20.60;66.00;;;;;;5055070;28;1536;-66
2021/06/11 07:25:05;;;;;;;;;;;20.60;65.90;;;;;;5050104;28;1286;-67
2021/06/11 07:27:32;;;;;;;;;;;20.60;66.00;;;;;;5049484;28;1527;-66
2021/06/11 07:29:58;;;;;;;;;;;20.60;66.00;;;;;;5052939;28;1659;-66
2021/06/11 07:32:24;;;;;;;;;;;20.60;66.00;;;;;;5051677;28;1381;-66
2021/06/11 07:34:49;;;;;;;;;;;20.60;66.00;;;;;;5052097;28;1902;-67
2021/06/11 07:37:15;;;;;;;;;;;20.60;66.00;;;;;;5052027;28;1527;-66
2021/06/11 07:39:40;;;;;;;;;;;20.60;66.00;;;;;;5052829;28;1462;-66
2021/06/11 07:42:06;;;;;;;;;;;20.60;66.00;;;;;;5051589;28;1483;-66
2021/06/11 07:44:31;;;;;;;;;;;20.60;66.00;;;;;;5052055;28;1364;-67
2021/06/11 07:46:56;;;;;;;;;;;20.60;66.00;;;;;;5052997;28;1369;-66
2021/06/11 07:49:22;;;;;;;;;;;20.60;66.00;;;;;;5052925;28;1286;-66
2021/06/11 07:51:47;;;;;;;;;;;20.60;66.00;;;;;;5051803;28;1678;-67
2021/06/11 07:54:13;;;;;;;;;;;20.60;66.00;;;;;;5050424;28;1953;-66
2021/06/11 07:56:38;;;;;;;;;;;20.60;66.00;;;;;;5050553;28;1064;-67
2021/06/11 07:59:04;;;;;;;;;;;20.60;66.00;;;;;;5052448;28;1403;-67
2021/06/11 08:01:31;;;;;;;;;;;20.60;66.00;;;;;;5051378;28;1584;-66
2021/06/11 08:03:56;;;;;;;;;;;20.60;66.10;;;;;;5050387;28;1270;-66
2021/06/11 08:06:22;;;;;;;;;;;20.60;66.00;;;;;;5049553;28;1242;-66
2021/06/11 08:08:48;;;;;;;;;;;20.60;66.10;;;;;;5052618;28;1427;-65
2021/06/11 08:11:13;;;;;;;;;;;20.60;66.10;;;;;;5051418;28;1365;-66
2021/06/11 08:13:39;;;;;;;;;;;20.60;66.00;;;;;;5051486;28;1906;-66
2021/06/11 08:16:04;;;;;;;;;;;20.60;66.10;;;;;;5051975;28;1509;-67
2021/06/11 08:18:30;;;;;;;;;;;20.60;66.10;;;;;;5052005;28;1470;-67
2021/06/11 08:20:55;;;;;;;;;;;20.60;66.10;;;;;;5046388;28;1428;-66
2021/06/11 08:23:21;;;;;;;;;;;20.60;66.00;;;;;;5051755;28;1637;-66
2021/06/11 08:25:46;;;;;;;;;;;20.60;66.00;;;;;;5052399;28;1418;-67
2021/06/11 08:28:12;;;;;;;;;;;20.60;66.00;;;;;;5052043;28;1376;-66
2021/06/11 08:30:37;;;;;;;;;;;20.70;66.10;;;;;;5052283;28;1403;-66
2021/06/11 08:33:03;;;;;;;;;;;20.60;66.00;;;;;;5051610;28;1357;-66
2021/06/11 08:35:28;;;;;;;;;;;20.60;66.00;;;;;;5052251;28;1902;-66
2021/06/11 08:37:54;;;;;;;;;;;20.70;66.00;;;;;;5052252;28;1314;-66
2021/06/11 08:40:19;;;;;;;;;;;20.60;66.00;;;;;;5050936;28;1476;-67
2021/06/11 08:42:45;;;;;;;;;;;20.70;66.10;;;;;;5052199;28;1368;-66
2021/06/11 08:45:11;;;;;;;;;;;20.70;66.10;;;;;;5052105;28;1443;-66
2021/06/11 08:47:37;;;;;;;;;;;20.70;66.10;;;;;;5052342;28;1662;-66
2021/06/11 08:50:03;;;;;;;;;;;20.70;66.10;;;;;;5050355;28;1425;-65
2021/06/11 08:52:28;;;;;;;;;;;20.60;66.00;;;;;;5052385;28;1338;-67
2021/06/11 08:54:54;;;;;;;;;;;20.70;66.10;;;;;;5049686;28;1969;-66
2021/06/11 08:57:21;;;;;;;;;;;20.60;66.00;;;;;;5052020;28;1675;-66
2021/06/11 08:59:48;;;;;;;;;;;20.60;66.00;;;;;;5051776;28;1394;-66
2021/06/11 09:02:13;;;;;;;;;;;20.60;66.00;;;;;;5052175;28;1112;-65
2021/06/11 09:04:39;;;;;;;;;;;20.60;66.10;;;;;;5051972;28;1349;-65
2021/06/11 09:07:20;;;;;;;;;;;20.70;66.10;;;;;;5052714;28;1147;-65
2021/06/11 09:09:52;;;;;;;;;;;20.60;66.10;;;;;;5051355;28;1459;-65
2021/06/11 09:12:37;;;;;;;;;;;20.60;66.10;;;;;;5050825;28;1437;-65
2021/06/11 09:15:12;;;;;;;;;;;20.70;66.10;;;;;;5051157;28;1902;-66
2021/06/11 09:17:48;;;;;;;;;;;20.60;66.10;;;;;;5050697;28;1754;-65
2021/06/11 09:20:15;;;;;;;;;;;20.60;66.10;;;;;;5031371;28;1425;-65
2021/06/11 09:22:50;;;;;;;;;;;20.60;66.00;;;;;;5048300;28;1372;-65
2021/06/11 09:25:22;;;;;;;;;;;20.60;66.10;;;;;;5050589;28;1451;-66
2021/06/11 09:28:08;;;;;;;;;;;20.70;66.10;;;;;;5050540;28;1393;-65
2021/06/11 09:30:54;;;;;;;;;;;20.70;66.10;;;;;;5048089;28;1449;-66
2021/06/11 09:33:20;;;;;;;;;;;20.70;66.10;;;;;;5052655;28;1133;-67
2021/06/11 09:35:49;;;;;;;;;;;20.60;66.10;;;;;;5042289;28;1906;-66
2021/06/11 09:38:17;;;;;;;;;;;20.70;66.10;;;;;;5044332;28;1349;-66
2021/06/11 09:40:44;;;;;;;;;;;20.60;66.10;;;;;;5047658;28;1176;-66
2021/06/11 09:43:10;;;;;;;;;;;20.60;66.10;;;;;;5043150;28;1198;-67
2021/06/11 09:45:35;;;;;;;;;;;20.70;66.10;;;;;;5049046;28;1425;-66
2021/06/11 09:48:01;;;;;;;;;;;20.60;66.00;;;;;;5046406;28;1389;-66
2021/06/11 09:50:28;;;;;;;;;;;20.70;66.10;;;;;;5046264;28;1417;-67
2021/06/11 09:53:00;;;;;;;;;;;20.70;66.10;;;;;;5043570;28;1119;-66
2021/06/11 09:55:27;;;;;;;;;;;20.70;66.10;;;;;;5046812;28;1902;-66
2021/06/11 09:58:11;;;;;;;;;;;20.60;66.00;;;;;;5044500;28;1459;-65
2021/06/11 10:00:57;;;;;;;;;;;20.70;66.10;;;;;;5045168;28;1255;-66
2021/06/11 10:03:24;;;;;;;;;;;20.70;66.10;;;;;;5035445;28;1280;-66
2021/06/11 10:05:49;;;;;;;;;;;20.70;66.10;;;;;;5046752;28;1223;-66
2021/06/11 10:08:15;;;;;;;;;;;20.70;66.20;;;;;;5054514;28;1414;-66
2021/06/11 10:10:41;;;;;;;;;;;20.60;66.10;;;;;;5052947;28;1296;-67
2021/06/11 10:13:07;;;;;;;;;;;20.60;66.10;;;;;;5053731;28;1075;-66
2021/06/11 10:15:33;;;;;;;;;;;20.70;66.20;;;;;;5054736;28;1959;-66
2021/06/11 10:18:02;;;;;;;;;;;20.60;66.30;;;;;;5054039;28;1436;-66
2021/06/11 10:20:28;;;;;;;;;;;20.70;66.30;;;;;;5049203;28;1059;-66
2021/06/11 10:22:54;;;;;;;;;;;20.70;66.30;;;;;;5052272;28;1193;-65
2021/06/11 10:25:19;;;;;;;;;;;20.60;66.20;;;;;;5052686;28;1064;-67
2021/06/11 10:27:45;;;;;;;;;;;20.60;66.20;;;;;;5053752;28;1256;-66
2021/06/11 10:30:10;;;;;;;;;;;20.70;66.20;;;;;;5052930;28;1075;-66
2021/06/11 10:32:39;;;;;;;;;;;20.70;66.20;;;;;;5054328;28;1098;-66
2021/06/11 10:35:05;;;;;;;;;;;20.70;66.20;;;;;;5052301;28;1894;-66
2021/06/11 10:37:31;;;;;;;;;;;20.70;66.20;;;;;;5053996;28;1283;-66
2021/06/11 10:40:11;;;;;;;;;;;20.70;66.20;;;;;;5052023;28;1075;-65
2021/06/11 10:42:37;;;;;;;;;;;20.60;66.10;;;;;;5052847;28;1216;-66
2021/06/11 10:45:02;;;;;;;;;;;20.70;66.20;;;;;;5051988;28;1509;-66
2021/06/11 10:47:28;;;;;;;;;;;20.70;66.20;;;;;;5053596;28;1063;-66
2021/06/11 10:49:59;;;;;;;;;;;20.60;66.10;;;;;;5053608;28;1236;-65
2021/06/11 10:52:46;;;;;;;;;;;20.70;66.20;;;;;;5053690;28;1117;-66
2021/06/11 10:55:21;;;;;;;;;;;20.70;66.20;;;;;;5053155;28;1883;-65
2021/06/11 10:57:53;;;;;;;;;;;20.70;66.20;;;;;;5053784;28;1288;-66
2021/06/11 11:00:27;;;;;;;;;;;20.70;66.20;;;;;;5053418;28;1126;-66
2021/06/11 11:02:53;;;;;;;;;;;20.70;66.20;;;;;;5052832;28;1075;-66
2021/06/11 11:05:32;;;;;;;;;;;20.70;66.20;;;;;;5052037;28;1083;-66
2021/06/11 11:07:57;;;;;;;;;;;20.70;66.20;;;;;;5053289;28;1272;-65
2021/06/11 11:10:47;;;;;;;;;;;20.70;66.30;;;;;;5053737;28;1134;-67
2021/06/11 11:13:12;;;;;;;;;;;20.70;66.20;;;;;;5052464;28;1284;-67
2021/06/11 11:15:39;;;;;;;;;;;20.70;66.20;;;;;;5053388;28;1898;-67
2021/06/11 11:18:05;;;;;;;;;;;20.70;66.20;;;;;;5032111;28;1278;-66
2021/06/11 11:20:31;;;;;;;;;;;20.70;66.20;;;;;;5046486;28;1114;-66
2021/06/11 11:22:59;;;;;;;;;;;20.70;66.30;;;;;;5055191;28;1413;-66
2021/06/11 11:25:24;;;;;;;;;;;20.60;66.20;;;;;;5045638;28;1409;-66
2021/06/11 11:27:50;;;;;;;;;;;20.70;66.30;;;;;;5052784;28;1417;-66
2021/06/11 11:30:17;;;;;;;;;;;20.70;66.30;;;;;;5053358;28;1594;-66
2021/06/11 11:32:42;;;;;;;;;;;20.70;66.30;;;;;;5053123;28;1666;-66
2021/06/11 11:35:08;;;;;;;;;;;20.70;66.20;;;;;;5049082;28;2108;-66
2021/06/11 11:37:33;;;;;;;;;;;20.60;66.20;;;;;;5052814;28;2289;-66
2021/06/11 11:39:59;;;;;;;;;;;20.70;66.30;;;;;;5049505;28;1550;-66
2021/06/11 11:42:24;;;;;;;;;;;20.70;66.30;;;;;;5039387;28;1071;-66
2021/06/11 11:44:50;;;;;;;;;;;20.70;66.30;;;;;;5051958;28;1075;-66
2021/06/11 11:47:15;;;;;;;;;;;20.60;66.20;;;;;;5052773;28;1150;-66
2021/06/11 11:49:41;;;;;;;;;;;20.70;66.20;;;;;;5052300;28;1274;-65
2021/06/11 11:52:07;;;;;;;;;;;20.70;66.20;;;;;;5051068;28;1035;-65
2021/06/11 11:54:32;;;;;;;;;;;20.70;66.20;;;;;;5050925;28;1920;-65
2021/06/11 11:56:58;;;;;;;;;;;20.70;66.30;;;;;;5046920;28;1853;-66
2021/06/11 11:59:24;;;;;;;;;;;20.70;66.30;;;;;;5044324;28;1240;-65
2021/06/11 12:01:49;;;;;;;;;;;20.70;66.30;;;;;;5050568;28;1152;-65
2021/06/11 12:04:14;;;;;;;;;;;20.70;66.30;;;;;;5051992;28;1047;-65
2021/06/11 12:06:40;;;;;;;;;;;20.70;66.30;;;;;;5052640;28;1126;-65
2021/06/11 12:09:06;;;;;;;;;;;20.60;66.20;;;;;;5050793;28;1197;-66
2021/06/11 12:11:31;;;;;;;;;;;20.60;66.20;;;;;;5051941;28;1131;-66
2021/06/11 12:13:57;;;;;;;;;;;20.70;66.30;;;;;;5051739;28;1901;-65
2021/06/11 12:16:22;;;;;;;;;;;20.70;66.30;;;;;;5052527;28;1244;-66
2021/06/11 12:18:47;;;;;;;;;;;20.70;66.30;;;;;;5052060;28;1278;-67
2021/06/11 12:21:13;;;;;;;;;;;20.70;66.30;;;;;;5046746;28;1165;-66
2021/06/11 12:23:38;;;;;;;;;;;20.70;66.30;;;;;;5051820;28;1130;-66
2021/06/11 12:26:04;;;;;;;;;;;20.70;66.30;;;;;;5050367;28;1172;-66
2021/06/11 12:28:29;;;;;;;;;;;20.70;66.30;;;;;;5050980;28;1354;-66
2021/06/11 12:30:55;;;;;;;;;;;20.70;66.30;;;;;;5050671;28;1147;-66
2021/06/11 12:33:20;;;;;;;;;;;20.70;66.30;;;;;;5051190;28;1114;-66
2021/06/11 12:35:47;;;;;;;;;;;20.70;66.40;;;;;;5052087;28;1906;-66
2021/06/11 12:38:12;;;;;;;;;;;20.70;66.40;;;;;;5052010;28;1335;-66
2021/06/11 12:40:38;;;;;;;;;;;20.70;66.30;;;;;;5059212;28;1337;-65
2021/06/11 12:43:06;;;;;;;;;;;20.70;66.30;;;;;;5050160;28;1281;-65
2021/06/11 12:45:31;;;;;;;;;;;20.70;66.30;;;;;;5044175;28;1290;-65
2021/06/11 12:47:57;;;;;;;;;;;20.70;66.30;;;;;;5050881;28;1240;-66
2021/06/11 12:50:22;;;;;;;;;;;20.70;66.30;;;;;;5051695;28;1118;-65
2021/06/11 12:52:49;;;;;;;;;;;20.70;66.30;;;;;;5052096;28;1071;-66
2021/06/11 12:55:14;;;;;;;;;;;20.70;66.30;;;;;;5051585;28;1902;-65
2021/06/11 12:57:40;;;;;;;;;;;20.70;66.30;;;;;;5051792;28;1264;-65
2021/06/11 13:00:05;;;;;;;;;;;20.70;66.30;;;;;;5051478;28;1055;-66
2021/06/11 13:02:31;;;;;;;;;;;20.70;66.30;;;;;;5052030;28;1088;-65
2021/06/11 13:04:56;;;;;;;;;;;20.70;66.30;;;;;;5054906;28;1138;-65
2021/06/11 13:07:22;;;;;;;;;;;20.70;66.40;;;;;;5056022;28;1059;-65
2021/06/11 13:09:48;;;;;;;;;;;20.70;66.30;;;;;;5055674;28;1184;-65
2021/06/11 13:12:13;;;;;;;;;;;20.70;66.40;;;;;;5055907;28;1059;-65
2021/06/11 13:14:40;;;;;;;;;;;20.70;66.40;;;;;;5055272;28;1958;-65
2021/06/11 13:17:06;;;;;;;;;;;20.70;66.40;;;;;;5055561;28;1130;-66
2021/06/11 13:19:31;;;;;;;;;;;20.70;66.40;;;;;;5075289;22;3518;-72
2021/06/11 13:21:56;;;;;;;;;;;20.70;66.40;;;;;;5045000;28;1386;-72
2021/06/11 13:24:22;;;;;;;;;;;20.70;66.40;;;;;;5051683;28;1481;-72
2021/06/11 13:26:47;;;;;;;;;;;20.70;66.40;;;;;;5054452;28;1119;-72
2021/06/11 13:29:13;;;;;;;;;;;20.70;66.40;;;;;;5053973;28;1370;-72
2021/06/11 13:31:38;;;;;;;;;;;20.70;66.40;;;;;;5055242;28;1066;-72
2021/06/11 13:34:04;;;;;;;;;;;20.70;66.40;;;;;;5053590;28;1968;-72
2021/06/11 13:36:30;;;;;;;;;;;20.70;66.40;;;;;;5055296;28;1086;-72
2021/06/11 13:38:55;;;;;;;;;;;20.70;66.40;;;;;;5055016;28;1284;-72
2021/06/11 13:41:21;;;;;;;;;;;20.70;66.40;;;;;;5053868;28;1171;-72
2021/06/11 13:43:47;;;;;;;;;;;20.70;66.40;;;;;;5054754;28;1087;-72
2021/06/11 13:46:12;;;;;;;;;;;20.70;66.40;;;;;;5054884;28;1090;-73
2021/06/11 13:48:37;;;;;;;;;;;20.70;66.40;;;;;;5053632;28;1330;-72
2021/06/11 13:51:03;;;;;;;;;;;20.70;66.40;;;;;;5055060;28;1126;-73
2021/06/11 13:53:28;;;;;;;;;;;20.70;66.40;;;;;;5054576;28;1122;-72
2021/06/11 13:55:54;;;;;;;;;;;20.70;66.40;;;;;;5054307;28;1953;-72
2021/06/11 13:58:19;;;;;;;;;;;20.70;66.40;;;;;;5053875;28;1358;-72
2021/06/11 14:00:45;;;;;;;;;;;20.70;66.40;;;;;;5053131;28;1056;-72
2021/06/11 14:03:10;;;;;;;;;;;20.70;66.40;;;;;;5044436;28;1287;-70
2021/06/11 14:05:39;;;;;;;;;;;20.70;66.40;;;;;;5033775;28;1020;-70
2021/06/11 14:08:05;;;;;;;;;;;20.70;66.40;;;;;;5034450;28;1083;-71
2021/06/11 14:10:30;;;;;;;;;;;20.70;66.40;;;;;;5033411;28;1364;-70
2021/06/11 14:12:56;;;;;;;;;;;20.70;66.40;;;;;;5032912;28;1123;-71
2021/06/11 14:15:22;;;;;;;;;;;20.70;66.40;;;;;;5034137;28;1898;-70
2021/06/11 14:17:48;;;;;;;;;;;20.70;66.40;;;;;;5033542;28;1064;-70
2021/06/11 14:20:13;;;;;;;;;;;20.70;66.50;;;;;;5031356;28;1324;-70
2021/06/11 14:22:39;;;;;;;;;;;20.70;66.40;;;;;;5048867;28;1198;-71
2021/06/11 14:25:04;;;;;;;;;;;20.70;66.40;;;;;;5044745;28;1203;-71
2021/06/11 14:27:30;;;;;;;;;;;20.70;66.40;;;;;;5048641;28;1095;-70